sensor_id;sensor_type;location;lat;lon;timestamp;P1;durP1;ratioP1;P2;durP2;ratioP2
62419;SDS011;48460;51.616;5.426;2023-04-01T00:00:06;8.70;;;2.88;;
62419;SDS011;48460;51.616;5.426;2023-04-01T00:02:39;6.97;;;2.67;;
62419;SDS011;48460;51.616;5.426;2023-04-01T00:05:18;11.52;;;3.55;;
62419;SDS011;48460;51.616;5.426;2023-04-01T00:08:08;7.80;;;2.85;;
62419;SDS011;48460;51.616;5.426;2023-04-01T00:14:08;6.93;;;2.78;;
62419;SDS011;48460;51.616;5.426;2023-04-01T00:22:40;8.35;;;3.83;;
62419;SDS011;48460;51.616;5.426;2023-04-01T00:25:08;9.27;;;4.20;;
62419;SDS011;48460;51.616;5.426;2023-04-01T00:27:34;12.30;;;4.75;;
62419;SDS011;48460;51.616;5.426;2023-04-01T00:29:59;9.65;;;4.50;;
62419;SDS011;48460;51.616;5.426;2023-04-01T00:32:27;12.13;;;4.90;;
62419;SDS011;48460;51.616;5.426;2023-04-01T00:34:55;11.30;;;5.10;;
62419;SDS011;48460;51.616;5.426;2023-04-01T00:37:41;11.27;;;5.43;;
62419;SDS011;48460;51.616;5.426;2023-04-01T00:40:30;12.02;;;5.93;;
62419;SDS011;48460;51.616;5.426;2023-04-01T00:50:21;12.15;;;7.47;;
62419;SDS011;48460;51.616;5.426;2023-04-01T00:53:03;14.30;;;8.90;;
62419;SDS011;48460;51.616;5.426;2023-04-01T00:55:36;11.38;;;7.50;;
62419;SDS011;48460;51.616;5.426;2023-04-01T00:59:03;12.88;;;9.68;;
62419;SDS011;48460;51.616;5.426;2023-04-01T01:02:08;14.30;;;8.90;;
62419;SDS011;48460;51.616;5.426;2023-04-01T01:04:45;12.45;;;8.30;;
62419;SDS011;48460;51.616;5.426;2023-04-01T01:10:02;16.60;;;10.07;;
62419;SDS011;48460;51.616;5.426;2023-04-01T01:15:57;15.05;;;10.10;;
62419;SDS011;48460;51.616;5.426;2023-04-01T01:21:49;14.63;;;10.50;;
62419;SDS011;48460;51.616;5.426;2023-04-01T01:28:48;13.23;;;9.48;;
62419;SDS011;48460;51.616;5.426;2023-04-01T01:34:53;13.05;;;9.15;;
62419;SDS011;48460;51.616;5.426;2023-04-01T01:41:27;12.73;;;8.90;;
62419;SDS011;48460;51.616;5.426;2023-04-01T01:47:14;13.35;;;7.70;;
62419;SDS011;48460;51.616;5.426;2023-04-01T01:49:41;8.07;;;6.32;;
62419;SDS011;48460;51.616;5.426;2023-04-01T01:52:29;9.77;;;6.57;;
62419;SDS011;48460;51.616;5.426;2023-04-01T01:58:21;8.52;;;5.35;;
62419;SDS011;48460;51.616;5.426;2023-04-01T02:00:55;6.90;;;4.70;;
62419;SDS011;48460;51.616;5.426;2023-04-01T02:03:24;6.55;;;4.80;;
62419;SDS011;48460;51.616;5.426;2023-04-01T02:05:55;8.05;;;4.50;;
62419;SDS011;48460;51.616;5.426;2023-04-01T02:08:27;5.50;;;3.63;;
62419;SDS011;48460;51.616;5.426;2023-04-01T02:11:29;6.57;;;3.65;;
62419;SDS011;48460;51.616;5.426;2023-04-01T02:14:20;5.30;;;3.15;;
62419;SDS011;48460;51.616;5.426;2023-04-01T02:20:50;9.32;;;5.80;;
62419;SDS011;48460;51.616;5.426;2023-04-01T02:23:30;9.65;;;6.30;;
62419;SDS011;48460;51.616;5.426;2023-04-01T02:26:04;8.00;;;4.22;;
62419;SDS011;48460;51.616;5.426;2023-04-01T02:29:14;11.00;;;4.47;;
62419;SDS011;48460;51.616;5.426;2023-04-01T02:40:28;8.10;;;3.25;;
62419;SDS011;48460;51.616;5.426;2023-04-01T02:43:41;6.18;;;3.17;;
62419;SDS011;48460;51.616;5.426;2023-04-01T02:46:06;7.32;;;3.88;;
62419;SDS011;48460;51.616;5.426;2023-04-01T02:48:34;7.50;;;3.60;;
62419;SDS011;48460;51.616;5.426;2023-04-01T02:51:02;8.35;;;4.63;;
62419;SDS011;48460;51.616;5.426;2023-04-01T02:53:43;7.13;;;4.65;;
62419;SDS011;48460;51.616;5.426;2023-04-01T03:00:05;6.38;;;3.92;;
62419;SDS011;48460;51.616;5.426;2023-04-01T03:02:37;8.38;;;3.75;;
62419;SDS011;48460;51.616;5.426;2023-04-01T03:05:17;8.23;;;4.15;;
62419;SDS011;48460;51.616;5.426;2023-04-01T03:07:49;7.82;;;4.95;;
62419;SDS011;48460;51.616;5.426;2023-04-01T03:11:04;10.57;;;5.78;;
62419;SDS011;48460;51.616;5.426;2023-04-01T03:13:37;12.05;;;6.93;;
62419;SDS011;48460;51.616;5.426;2023-04-01T03:16:25;11.52;;;7.47;;
62419;SDS011;48460;51.616;5.426;2023-04-01T03:18:54;12.30;;;7.55;;
62419;SDS011;48460;51.616;5.426;2023-04-01T03:21:51;15.10;;;8.52;;
62419;SDS011;48460;51.616;5.426;2023-04-01T03:24:46;16.80;;;7.97;;
62419;SDS011;48460;51.616;5.426;2023-04-01T03:27:33;14.50;;;7.75;;
62419;SDS011;48460;51.616;5.426;2023-04-01T03:34:08;12.55;;;7.10;;
62419;SDS011;48460;51.616;5.426;2023-04-01T03:39:43;11.80;;;6.25;;
62419;SDS011;48460;51.616;5.426;2023-04-01T03:42:22;12.63;;;6.72;;
62419;SDS011;48460;51.616;5.426;2023-04-01T03:45:21;9.40;;;5.25;;
